Chaves — CQMY — position and weather

sailwx.info

Track history (hours):
 
Tides and Currents Weather Stations Pressure Air Temp Water Temp Dewpoint Dewpoint Depression Visibility Wind Speed Wind Dir Waves Ship Positions

Chaves

Last reported at 2017-Jun-23 18:30 UTC. Time now 2017-Jun-23 18:57 UTC.
Position N 55°13' W 005°56'.

Length 90 m; draft 4.4 m.

Type: Ship. MMSI: 255803660.

Date/timePositionNaut miles runAvg speedWind from/ knotsBaromVisibWave heightAir tempDewpointWater temp
2017-Jun-23 18:30N 55°13' W 005°56'612.7
2017-Jun-23 18:00N 55°18' W 006°04'5 9.9
2017-Jun-23 17:30N 55°21' W 006°11'4 8.8
2017-Jun-23 17:00N 55°20' W 006°19'4 8.3
2017-Jun-23 16:28N 55°19' W 006°27'4 7.9
2017-Jun-23 15:59N 55°18' W 006°33'4 7.5
2017-Jun-23 15:30N 55°17' W 006°39'4 7.5
2017-Jun-23 15:00N 55°16' W 006°46'8 7.9
2017-Jun-23 14:00N 55°12' W 006°57'4 8.2
2017-Jun-23 13:30N 55°10' W 007°04'5 9.1
2017-Jun-23 13:00N 55°08' W 007°10'5 9.5
2017-Jun-23 12:30N 55°03' W 007°14'1 2.5
2017-Jun-23 11:59N 55°03' W 007°16'0 0.0
2017-Jun-23 11:27N 55°03' W 007°16'0 0.0
2017-Jun-23 11:00N 55°03' W 007°16'0 0.0
2017-Jun-23 10:30N 55°03' W 007°16'0 0.0
2017-Jun-23 10:00N 55°03' W 007°16'0 0.0
2017-Jun-23 09:30N 55°03' W 007°16'0 0.0
2017-Jun-23 09:00N 55°03' W 007°16'0 0.0
2017-Jun-23 08:30N 55°03' W 007°16'0 0.0
2017-Jun-23 07:57N 55°03' W 007°16'0 0.0
2017-Jun-23 07:27N 55°03' W 007°16'0 0.0
2017-Jun-23 07:00N 55°03' W 007°16'0 0.0
2017-Jun-23 06:30N 55°03' W 007°16'0 0.0
2017-Jun-23 06:00N 55°03' W 007°16'0 0.0
2017-Jun-23 05:27N 55°03' W 007°16'0 0.0
2017-Jun-23 05:00N 55°03' W 007°16'0 0.0
2017-Jun-23 04:30N 55°03' W 007°16'0 0.0
2017-Jun-23 04:00N 55°03' W 007°16'0 0.0
2017-Jun-23 03:30N 55°03' W 007°16'0 0.0
2017-Jun-23 03:00N 55°03' W 007°16'0 0.0
2017-Jun-23 02:30N 55°03' W 007°16'0 0.0
2017-Jun-23 02:00N 55°03' W 007°16'0 0.0
2017-Jun-23 01:30N 55°03' W 007°16'0 0.0
2017-Jun-23 01:00N 55°03' W 007°16'0 0.0
2017-Jun-23 00:21N 55°03' W 007°16'0 0.0
2017-Jun-22 22:51N 55°03' W 007°16'0 0.0
2017-Jun-22 22:30N 55°03' W 007°16'0 0.0
2017-Jun-22 22:00N 55°03' W 007°16'0 0.0
2017-Jun-22 21:27N 55°03' W 007°16'0 0.0
2017-Jun-22 21:00N 55°03' W 007°16'0 0.0
2017-Jun-22 19:24N 55°03' W 007°16'0 0.0
2017-Jun-22 18:57N 55°03' W 007°16'0 0.0
2017-Jun-22 18:30N 55°03' W 007°16'0 0.0
2017-Jun-22 18:00N 55°03' W 007°16'0 0.0
2017-Jun-22 17:30N 55°03' W 007°16'0 0.0
2017-Jun-22 17:00N 55°03' W 007°16'0 0.0
2017-Jun-22 16:30N 55°03' W 007°16'0 0.0
2017-Jun-22 15:57N 55°03' W 007°16'0 0.0
2017-Jun-22 15:24N 55°03' W 007°16'0 0.0
2017-Jun-22 14:51N 55°03' W 007°16'0 0.0
2017-Jun-22 13:57N 55°03' W 007°16'0 0.0
2017-Jun-22 13:27N 55°03' W 007°16'0 0.0
2017-Jun-22 12:51N 55°03' W 007°16'0 0.0
2017-Jun-22 12:15N 55°03' W 007°16'0 0.0
2017-Jun-22 12:00N 55°03' W 007°16'0 0.0
2017-Jun-22 11:27N 55°03' W 007°16'0 0.0
2017-Jun-22 11:00N 55°03' W 007°16'0 0.0
2017-Jun-22 10:30N 55°03' W 007°16'0 0.0
2017-Jun-22 09:57N 55°03' W 007°16'0 0.0
2017-Jun-22 09:27N 55°03' W 007°16'0 0.0
2017-Jun-22 08:54N 55°03' W 007°16'0 0.0
2017-Jun-22 08:30N 55°03' W 007°16'0 0.0
2017-Jun-22 07:57N 55°03' W 007°16'0 0.0
2017-Jun-22 07:30N 55°03' W 007°16'0 0.0
2017-Jun-22 06:48N 55°03' W 007°16'0 0.0
2017-Jun-22 06:30N 55°03' W 007°16'0 0.0
2017-Jun-22 06:00N 55°03' W 007°16'0 0.0
2017-Jun-22 05:30N 55°03' W 007°16'0 0.0
2017-Jun-22 05:00N 55°03' W 007°16'0 0.0
2017-Jun-22 04:30N 55°03' W 007°16'0 0.0
2017-Jun-22 04:00N 55°03' W 007°16'0 0.0
2017-Jun-22 03:30N 55°03' W 007°16'0 0.0
2017-Jun-22 02:54N 55°02' W 007°16'0 0.0
2017-Jun-22 02:30N 55°03' W 007°16'0 0.0
2017-Jun-21 20:33N 55°03' W 007°16'0 0.0
2017-Jun-21 20:12N 55°03' W 007°16'0 0.0
2017-Jun-21 19:48N 55°03' W 007°16'0 0.0
2017-Jun-21 19:24N 55°03' W 007°16'0 0.0
2017-Jun-21 18:57N 55°03' W 007°16'0 0.0
2017-Jun-21 18:21N 55°03' W 007°16'0 0.0
2017-Jun-21 17:51N 55°03' W 007°16'0 0.0
2017-Jun-21 17:30N 55°03' W 007°16'0 0.0
2017-Jun-21 06:36N 55°03' W 007°16'0 0.0
2017-Jun-21 06:30N 55°03' W 007°16'0 0.0
2017-Jun-21 06:00N 55°03' W 007°16'0 0.0
2017-Jun-20 20:59N 55°03' W 007°16'0 0.0
2017-Jun-20 19:02N 55°03' W 007°16'0 0.0
2017-Jun-20 18:59N 55°03' W 007°16'0 0.1
2017-Jun-20 18:27N 55°03' W 007°16'2 3.7
2017-Jun-20 18:00N 55°04' W 007°14'4 7.8
2017-Jun-20 17:28N 55°07' W 007°11'4 8.1
2017-Jun-20 17:00N 55°10' W 007°05'4 8.0
2017-Jun-20 16:29N 55°12' W 006°59'4 7.8
2017-Jun-20 16:00N 55°13' W 006°53'4 8.7
2017-Jun-20 15:31N 55°16' W 006°48'1 2.8
2017-Jun-20 15:00N 55°18' W 006°47'1 0.7
2017-Jun-20 14:00N 55°18' W 006°48'0 0.3
2017-Jun-20 13:30N 55°18' W 006°49'0 0.6
2017-Jun-20 13:00N 55°17' W 006°48'1 1.1
2017-Jun-20 12:30N 55°17' W 006°47'2 4.3
2017-Jun-20 12:00N 55°17' W 006°44'510.3
2017-Jun-20 11:30N 55°20' W 006°36'510.7
2017-Jun-20 11:00N 55°22' W 006°27'510.3
2017-Jun-20 10:30N 55°25' W 006°20'510.2
2017-Jun-20 10:00N 55°26' W 006°11'510.2
2017-Jun-20 09:30N 55°24' W 006°02'510.2
2017-Jun-20 09:00N 55°20' W 005°57'510.1
2017-Jun-20 08:30N 55°15' W 005°52'5 9.8
2017-Jun-20 08:00N 55°12' W 005°47'14 9.0
2017-Jun-20 06:26N 55°00' W 005°33'3 7.8
2017-Jun-20 06:00N 54°57' W 005°30'4 7.7
2017-Jun-20 05:30N 54°54' W 005°26'4 7.8
2017-Jun-20 05:00N 54°51' W 005°22'4 7.3
2017-Jun-20 04:30N 54°48' W 005°18'4 7.2
2017-Jun-20 04:00N 54°45' W 005°15'4 7.6
2017-Jun-20 03:30N 54°42' W 005°12'4 8.5
2017-Jun-20 03:00N 54°38' W 005°08'5 9.4
2017-Jun-20 02:30N 54°34' W 005°03'4 9.1
2017-Jun-20 02:00N 54°31' W 004°58'5 8.8
2017-Jun-20 01:25N 54°26' W 004°59'3 8.7
2017-Jun-20 01:00N 54°22' W 004°59'13 8.8
2017-Jun-19 23:30N 54°09' W 005°01'4 8.8
2017-Jun-19 23:00N 54°05' W 005°02'154 8.8
2017-Jun-19 05:35N 51°33' W 005°50'1 9.3
2017-Jun-19 05:30N 51°32' W 005°50'4 9.2
2017-Jun-19 05:00N 51°28' W 005°50'36 9.3
2017-Jun-19 01:09N 50°52' W 005°51'2 9.5
2017-Jun-19 00:58N 50°50' W 005°51'36 9.8
2017-Jun-18 21:17N 50°14' W 005°52'310.4
2017-Jun-18 21:00N 50°12' W 005°52'710.2
2017-Jun-18 20:21N 50°05' W 005°52'5 9.8
2017-Jun-18 19:54N 50°00' W 005°52'  
2017-Jun-15 19:46N 40°50' W 009°46'7 6.5
2017-Jun-15 18:39N 40°43' W 009°45'15 7.1
2017-Jun-15 16:31N 40°28' W 009°45'1 7.3
2017-Jun-15 16:23N 40°27' W 009°45'3 7.1
2017-Jun-15 15:58N 40°24' W 009°45'3 7.2
2017-Jun-15 15:30N 40°21' W 009°45'4 7.4
2017-Jun-15 15:00N 40°17' W 009°44'8 7.5
2017-Jun-15 14:00N 40°09' W 009°44'4 7.4
2017-Jun-15 13:30N 40°06' W 009°44'4 7.3
2017-Jun-15 12:59N 40°02' W 009°44'3 7.1
2017-Jun-15 12:30N 39°58' W 009°44'4 7.1
2017-Jun-15 12:00N 39°55' W 009°44'3 6.9
2017-Jun-15 11:30N 39°51' W 009°45'4 7.1
2017-Jun-15 11:00N 39°48' W 009°45'4 7.1
2017-Jun-15 10:30N 39°44' W 009°44'4 7.2
2017-Jun-15 10:00N 39°41' W 009°44'4 7.4
2017-Jun-15 09:30N 39°37' W 009°44'4 7.4
2017-Jun-15 09:00N 39°33' W 009°44'4 7.4
2017-Jun-15 08:30N 39°30' W 009°44'4 7.4
2017-Jun-15 08:00N 39°26' W 009°44'4 7.5
2017-Jun-15 07:30N 39°22' W 009°44'4 7.6
2017-Jun-15 07:00N 39°18' W 009°44'4 7.9
2017-Jun-15 06:30N 39°14' W 009°43'4 7.9
2017-Jun-15 06:00N 39°10' W 009°43'4 8.3
2017-Jun-15 05:30N 39°06' W 009°43'4 8.3
2017-Jun-15 05:00N 39°02' W 009°44'4 8.0
2017-Jun-15 04:30N 38°58' W 009°43'4 7.8
2017-Jun-15 04:00N 38°54' W 009°43'4 7.9
2017-Jun-15 03:30N 38°50' W 009°43'4 7.9
2017-Jun-15 03:00N 38°46' W 009°43'4 7.7
2017-Jun-15 02:30N 38°43' W 009°42'4 7.3
2017-Jun-15 02:00N 38°39' W 009°42'4 7.5
2017-Jun-15 01:30N 38°38' W 009°37'4 8.6
2017-Jun-15 01:00N 38°38' W 009°32'4 7.0
2017-Jun-15 00:30N 38°37' W 009°27'4 9.0
2017-Jun-15 00:00N 38°38' W 009°22'510.1
2017-Jun-14 23:30N 38°41' W 009°17'5 9.4
2017-Jun-14 23:00N 38°41' W 009°11'4 8.9
2017-Jun-14 22:30N 38°44' W 009°06'0 0.2
2017-Jun-14 21:56N 38°44' W 009°06'0 0.0
2017-Jun-14 21:29N 38°44' W 009°06'0 0.0
2017-Jun-14 20:59N 38°44' W 009°06'0 0.0
2017-Jun-14 20:29N 38°44' W 009°06'0 0.0
2017-Jun-14 18:26N 38°44' W 009°06'0 0.0
2017-Jun-14 17:59N 38°44' W 009°06'0 0.0
2017-Jun-14 16:45N 38°44' W 009°06'0 0.0
2017-Jun-14 16:29N 38°44' W 009°06'0 0.0
2017-Jun-14 15:59N 38°44' W 009°06'0 0.0
2017-Jun-14 15:26N 38°44' W 009°06'0 0.0
2017-Jun-14 14:50N 38°44' W 009°06'0 0.0
2017-Jun-14 13:56N 38°44' W 009°06'0 0.0
2017-Jun-14 13:29N 38°44' W 009°06'0 0.0
2017-Jun-14 12:59N 38°44' W 009°06'0 0.0
2017-Jun-14 12:26N 38°44' W 009°06'0 0.0
2017-Jun-14 11:59N 38°44' W 009°06'0 0.0
2017-Jun-14 10:53N 38°44' W 009°06'0 0.0
2017-Jun-14 10:23N 38°44' W 009°06'0 0.0
2017-Jun-14 09:56N 38°44' W 009°06'0 0.0
2017-Jun-14 09:14N 38°44' W 009°06'0 0.0
2017-Jun-14 08:38N 38°44' W 009°06'0 0.0
2017-Jun-14 08:02N 38°44' W 009°06'0 0.0
2017-Jun-14 07:53N 38°44' W 009°06'0 0.0
2017-Jun-14 07:23N 38°44' W 009°06'0 0.0
2017-Jun-14 06:59N 38°44' W 009°06'0 0.0
2017-Jun-14 06:29N 38°44' W 009°06'0 0.0
2017-Jun-14 05:56N 38°44' W 009°06'0 0.0
2017-Jun-14 05:17N 38°44' W 009°06'0 0.0
2017-Jun-14 04:53N 38°44' W 009°06'0 0.0
2017-Jun-14 04:26N 38°44' W 009°06'0 0.0
2017-Jun-14 03:59N 38°44' W 009°06'0 0.0
2017-Jun-14 03:29N 38°44' W 009°06'0 0.0
2017-Jun-14 02:59N 38°44' W 009°06'0 0.0
2017-Jun-14 02:29N 38°44' W 009°06'0 0.0
2017-Jun-14 01:56N 38°44' W 009°06'0 0.0
2017-Jun-14 01:29N 38°44' W 009°06'0 0.0
2017-Jun-14 00:56N 38°44' W 009°06'0 0.0
2017-Jun-14 00:29N 38°44' W 009°06'0 0.0
2017-Jun-13 23:59N 38°44' W 009°06'0 0.0
2017-Jun-13 23:29N 38°44' W 009°06'0 0.0
2017-Jun-13 22:59N 38°44' W 009°06'0 0.0
2017-Jun-13 22:29N 38°44' W 009°06'0 0.0
2017-Jun-13 21:59N 38°44' W 009°06'0 0.0
2017-Jun-13 21:26N 38°44' W 009°06'0 0.0
2017-Jun-13 20:59N 38°44' W 009°06'0 0.0
2017-Jun-13 20:29N 38°44' W 009°06'0 0.0
2017-Jun-13 18:47N 38°44' W 009°06'  
Track history (hours):
 
Tides and Currents Weather Stations Pressure Air Temp Water Temp Dewpoint Dewpoint Depression Visibility Wind Speed Wind Dir Waves Ship Positions

Chaves

Last reported at 2017-Jun-23 18:30 UTC. Time now 2017-Jun-23 18:57 UTC.
Position N 55°13' W 005°56'.

Length 90 m; draft 4.4 m.

Type: Ship. MMSI: 255803660.

Date/timePositionNaut miles runAvg speedWind from/ knotsBaromVisibWave heightAir tempDewpointWater temp
2017-Jun-23 18:30N 55°13' W 005°56'612.7
2017-Jun-23 18:00N 55°18' W 006°04'5 9.9
2017-Jun-23 17:30N 55°21' W 006°11'4 8.8
2017-Jun-23 17:00N 55°20' W 006°19'4 8.3
2017-Jun-23 16:28N 55°19' W 006°27'4 7.9
2017-Jun-23 15:59N 55°18' W 006°33'4 7.5
2017-Jun-23 15:30N 55°17' W 006°39'4 7.5
2017-Jun-23 15:00N 55°16' W 006°46'8 7.9
2017-Jun-23 14:00N 55°12' W 006°57'4 8.2
2017-Jun-23 13:30N 55°10' W 007°04'5 9.1
2017-Jun-23 13:00N 55°08' W 007°10'5 9.5
2017-Jun-23 12:30N 55°03' W 007°14'1 2.5
2017-Jun-23 11:59N 55°03' W 007°16'0 0.0
2017-Jun-23 11:27N 55°03' W 007°16'0 0.0
2017-Jun-23 11:00N 55°03' W 007°16'0 0.0
2017-Jun-23 10:30N 55°03' W 007°16'0 0.0
2017-Jun-23 10:00N 55°03' W 007°16'0 0.0
2017-Jun-23 09:30N 55°03' W 007°16'0 0.0
2017-Jun-23 09:00N 55°03' W 007°16'0 0.0
2017-Jun-23 08:30N 55°03' W 007°16'0 0.0
2017-Jun-23 07:57N 55°03' W 007°16'0 0.0
2017-Jun-23 07:27N 55°03' W 007°16'0 0.0
2017-Jun-23 07:00N 55°03' W 007°16'0 0.0
2017-Jun-23 06:30N 55°03' W 007°16'0 0.0
2017-Jun-23 06:00N 55°03' W 007°16'0 0.0
2017-Jun-23 05:27N 55°03' W 007°16'0 0.0
2017-Jun-23 05:00N 55°03' W 007°16'0 0.0
2017-Jun-23 04:30N 55°03' W 007°16'0 0.0
2017-Jun-23 04:00N 55°03' W 007°16'0 0.0
2017-Jun-23 03:30N 55°03' W 007°16'0 0.0
2017-Jun-23 03:00N 55°03' W 007°16'0 0.0
2017-Jun-23 02:30N 55°03' W 007°16'0 0.0
2017-Jun-23 02:00N 55°03' W 007°16'0 0.0
2017-Jun-23 01:30N 55°03' W 007°16'0 0.0
2017-Jun-23 01:00N 55°03' W 007°16'0 0.0
2017-Jun-23 00:21N 55°03' W 007°16'0 0.0
2017-Jun-22 22:51N 55°03' W 007°16'0 0.0
2017-Jun-22 22:30N 55°03' W 007°16'0 0.0
2017-Jun-22 22:00N 55°03' W 007°16'0 0.0
2017-Jun-22 21:27N 55°03' W 007°16'0 0.0
2017-Jun-22 21:00N 55°03' W 007°16'0 0.0
2017-Jun-22 19:24N 55°03' W 007°16'0 0.0
2017-Jun-22 18:57N 55°03' W 007°16'0 0.0
2017-Jun-22 18:30N 55°03' W 007°16'0 0.0
2017-Jun-22 18:00N 55°03' W 007°16'0 0.0
2017-Jun-22 17:30N 55°03' W 007°16'0 0.0
2017-Jun-22 17:00N 55°03' W 007°16'0 0.0
2017-Jun-22 16:30N 55°03' W 007°16'0 0.0
2017-Jun-22 15:57N 55°03' W 007°16'0 0.0
2017-Jun-22 15:24N 55°03' W 007°16'0 0.0
2017-Jun-22 14:51N 55°03' W 007°16'0 0.0
2017-Jun-22 13:57N 55°03' W 007°16'0 0.0
2017-Jun-22 13:27N 55°03' W 007°16'0 0.0
2017-Jun-22 12:51N 55°03' W 007°16'0 0.0
2017-Jun-22 12:15N 55°03' W 007°16'0 0.0
2017-Jun-22 12:00N 55°03' W 007°16'0 0.0
2017-Jun-22 11:27N 55°03' W 007°16'0 0.0
2017-Jun-22 11:00N 55°03' W 007°16'0 0.0
2017-Jun-22 10:30N 55°03' W 007°16'0 0.0
2017-Jun-22 09:57N 55°03' W 007°16'0 0.0
2017-Jun-22 09:27N 55°03' W 007°16'0 0.0
2017-Jun-22 08:54N 55°03' W 007°16'0 0.0
2017-Jun-22 08:30N 55°03' W 007°16'0 0.0
2017-Jun-22 07:57N 55°03' W 007°16'0 0.0
2017-Jun-22 07:30N 55°03' W 007°16'0 0.0
2017-Jun-22 06:48N 55°03' W 007°16'0 0.0
2017-Jun-22 06:30N 55°03' W 007°16'0 0.0
2017-Jun-22 06:00N 55°03' W 007°16'0 0.0
2017-Jun-22 05:30N 55°03' W 007°16'0 0.0
2017-Jun-22 05:00N 55°03' W 007°16'0 0.0
2017-Jun-22 04:30N 55°03' W 007°16'0 0.0
2017-Jun-22 04:00N 55°03' W 007°16'0 0.0
2017-Jun-22 03:30N 55°03' W 007°16'0 0.0
2017-Jun-22 02:54N 55°02' W 007°16'0 0.0
2017-Jun-22 02:30N 55°03' W 007°16'0 0.0
2017-Jun-21 20:33N 55°03' W 007°16'0 0.0
2017-Jun-21 20:12N 55°03' W 007°16'0 0.0
2017-Jun-21 19:48N 55°03' W 007°16'0 0.0
2017-Jun-21 19:24N 55°03' W 007°16'0 0.0
2017-Jun-21 18:57N 55°03' W 007°16'0 0.0
2017-Jun-21 18:21N 55°03' W 007°16'0 0.0
2017-Jun-21 17:51N 55°03' W 007°16'0 0.0
2017-Jun-21 17:30N 55°03' W 007°16'0 0.0
2017-Jun-21 06:36N 55°03' W 007°16'0 0.0
2017-Jun-21 06:30N 55°03' W 007°16'0 0.0
2017-Jun-21 06:00N 55°03' W 007°16'0 0.0
2017-Jun-20 20:59N 55°03' W 007°16'0 0.0
2017-Jun-20 19:02N 55°03' W 007°16'0 0.0
2017-Jun-20 18:59N 55°03' W 007°16'0 0.1
2017-Jun-20 18:27N 55°03' W 007°16'2 3.7
2017-Jun-20 18:00N 55°04' W 007°14'4 7.8
2017-Jun-20 17:28N 55°07' W 007°11'4 8.1
2017-Jun-20 17:00N 55°10' W 007°05'4 8.0
2017-Jun-20 16:29N 55°12' W 006°59'4 7.8
2017-Jun-20 16:00N 55°13' W 006°53'4 8.7
2017-Jun-20 15:31N 55°16' W 006°48'1 2.8
2017-Jun-20 15:00N 55°18' W 006°47'1 0.7
2017-Jun-20 14:00N 55°18' W 006°48'0 0.3
2017-Jun-20 13:30N 55°18' W 006°49'0 0.6
2017-Jun-20 13:00N 55°17' W 006°48'1 1.1
2017-Jun-20 12:30N 55°17' W 006°47'2 4.3
2017-Jun-20 12:00N 55°17' W 006°44'510.3
2017-Jun-20 11:30N 55°20' W 006°36'510.7
2017-Jun-20 11:00N 55°22' W 006°27'510.3
2017-Jun-20 10:30N 55°25' W 006°20'510.2
2017-Jun-20 10:00N 55°26' W 006°11'510.2
2017-Jun-20 09:30N 55°24' W 006°02'510.2
2017-Jun-20 09:00N 55°20' W 005°57'510.1
2017-Jun-20 08:30N 55°15' W 005°52'5 9.8
2017-Jun-20 08:00N 55°12' W 005°47'14 9.0
2017-Jun-20 06:26N 55°00' W 005°33'3 7.8
2017-Jun-20 06:00N 54°57' W 005°30'4 7.7
2017-Jun-20 05:30N 54°54' W 005°26'4 7.8
2017-Jun-20 05:00N 54°51' W 005°22'4 7.3
2017-Jun-20 04:30N 54°48' W 005°18'4 7.2
2017-Jun-20 04:00N 54°45' W 005°15'4 7.6
2017-Jun-20 03:30N 54°42' W 005°12'4 8.5
2017-Jun-20 03:00N 54°38' W 005°08'5 9.4
2017-Jun-20 02:30N 54°34' W 005°03'4 9.1
2017-Jun-20 02:00N 54°31' W 004°58'5 8.8
2017-Jun-20 01:25N 54°26' W 004°59'3 8.7
2017-Jun-20 01:00N 54°22' W 004°59'13 8.8
2017-Jun-19 23:30N 54°09' W 005°01'4 8.8
2017-Jun-19 23:00N 54°05' W 005°02'154 8.8
2017-Jun-19 05:35N 51°33' W 005°50'1 9.3
2017-Jun-19 05:30N 51°32' W 005°50'4 9.2
2017-Jun-19 05:00N 51°28' W 005°50'36 9.3
2017-Jun-19 01:09N 50°52' W 005°51'2 9.5
2017-Jun-19 00:58N 50°50' W 005°51'36 9.8
2017-Jun-18 21:17N 50°14' W 005°52'310.4
2017-Jun-18 21:00N 50°12' W 005°52'710.2
2017-Jun-18 20:21N 50°05' W 005°52'5 9.8
2017-Jun-18 19:54N 50°00' W 005°52'  
2017-Jun-15 19:46N 40°50' W 009°46'7 6.5
2017-Jun-15 18:39N 40°43' W 009°45'15 7.1
2017-Jun-15 16:31N 40°28' W 009°45'1 7.3
2017-Jun-15 16:23N 40°27' W 009°45'3 7.1
2017-Jun-15 15:58N 40°24' W 009°45'3 7.2
2017-Jun-15 15:30N 40°21' W 009°45'4 7.4
2017-Jun-15 15:00N 40°17' W 009°44'8 7.5
2017-Jun-15 14:00N 40°09' W 009°44'4 7.4
2017-Jun-15 13:30N 40°06' W 009°44'4 7.3
2017-Jun-15 12:59N 40°02' W 009°44'3 7.1
2017-Jun-15 12:30N 39°58' W 009°44'4 7.1
2017-Jun-15 12:00N 39°55' W 009°44'3 6.9
2017-Jun-15 11:30N 39°51' W 009°45'4 7.1
2017-Jun-15 11:00N 39°48' W 009°45'4 7.1
2017-Jun-15 10:30N 39°44' W 009°44'4 7.2
2017-Jun-15 10:00N 39°41' W 009°44'4 7.4
2017-Jun-15 09:30N 39°37' W 009°44'4 7.4
2017-Jun-15 09:00N 39°33' W 009°44'4 7.4
2017-Jun-15 08:30N 39°30' W 009°44'4 7.4
2017-Jun-15 08:00N 39°26' W 009°44'4 7.5
2017-Jun-15 07:30N 39°22' W 009°44'4 7.6
2017-Jun-15 07:00N 39°18' W 009°44'4 7.9
2017-Jun-15 06:30N 39°14' W 009°43'4 7.9
2017-Jun-15 06:00N 39°10' W 009°43'4 8.3
2017-Jun-15 05:30N 39°06' W 009°43'4 8.3
2017-Jun-15 05:00N 39°02' W 009°44'4 8.0
2017-Jun-15 04:30N 38°58' W 009°43'4 7.8
2017-Jun-15 04:00N 38°54' W 009°43'4 7.9
2017-Jun-15 03:30N 38°50' W 009°43'4 7.9
2017-Jun-15 03:00N 38°46' W 009°43'4 7.7
2017-Jun-15 02:30N 38°43' W 009°42'4 7.3
2017-Jun-15 02:00N 38°39' W 009°42'4 7.5
2017-Jun-15 01:30N 38°38' W 009°37'4 8.6
2017-Jun-15 01:00N 38°38' W 009°32'4 7.0
2017-Jun-15 00:30N 38°37' W 009°27'4 9.0
2017-Jun-15 00:00N 38°38' W 009°22'510.1
2017-Jun-14 23:30N 38°41' W 009°17'5 9.4
2017-Jun-14 23:00N 38°41' W 009°11'4 8.9
2017-Jun-14 22:30N 38°44' W 009°06'0 0.2
2017-Jun-14 21:56N 38°44' W 009°06'0 0.0
2017-Jun-14 21:29N 38°44' W 009°06'0 0.0
2017-Jun-14 20:59N 38°44' W 009°06'0 0.0
2017-Jun-14 20:29N 38°44' W 009°06'0 0.0
2017-Jun-14 18:26N 38°44' W 009°06'0 0.0
2017-Jun-14 17:59N 38°44' W 009°06'0 0.0
2017-Jun-14 16:45N 38°44' W 009°06'0 0.0
2017-Jun-14 16:29N 38°44' W 009°06'0 0.0
2017-Jun-14 15:59N 38°44' W 009°06'0 0.0
2017-Jun-14 15:26N 38°44' W 009°06'0 0.0
2017-Jun-14 14:50N 38°44' W 009°06'0 0.0
2017-Jun-14 13:56N 38°44' W 009°06'0 0.0
2017-Jun-14 13:29N 38°44' W 009°06'0 0.0
2017-Jun-14 12:59N 38°44' W 009°06'0 0.0
2017-Jun-14 12:26N 38°44' W 009°06'0 0.0
2017-Jun-14 11:59N 38°44' W 009°06'0 0.0
2017-Jun-14 10:53N 38°44' W 009°06'0 0.0
2017-Jun-14 10:23N 38°44' W 009°06'0 0.0
2017-Jun-14 09:56N 38°44' W 009°06'0 0.0
2017-Jun-14 09:14N 38°44' W 009°06'0 0.0
2017-Jun-14 08:38N 38°44' W 009°06'0 0.0
2017-Jun-14 08:02N 38°44' W 009°06'0 0.0
2017-Jun-14 07:53N 38°44' W 009°06'0 0.0
2017-Jun-14 07:23N 38°44' W 009°06'0 0.0
2017-Jun-14 06:59N 38°44' W 009°06'0 0.0
2017-Jun-14 06:29N 38°44' W 009°06'0 0.0
2017-Jun-14 05:56N 38°44' W 009°06'0 0.0
2017-Jun-14 05:17N 38°44' W 009°06'0 0.0
2017-Jun-14 04:53N 38°44' W 009°06'0 0.0
2017-Jun-14 04:26N 38°44' W 009°06'0 0.0
2017-Jun-14 03:59N 38°44' W 009°06'0 0.0
2017-Jun-14 03:29N 38°44' W 009°06'0 0.0
2017-Jun-14 02:59N 38°44' W 009°06'0 0.0
2017-Jun-14 02:29N 38°44' W 009°06'0 0.0
2017-Jun-14 01:56N 38°44' W 009°06'0 0.0
2017-Jun-14 01:29N 38°44' W 009°06'0 0.0
2017-Jun-14 00:56N 38°44' W 009°06'0 0.0
2017-Jun-14 00:29N 38°44' W 009°06'0 0.0
2017-Jun-13 23:59N 38°44' W 009°06'0 0.0
2017-Jun-13 23:29N 38°44' W 009°06'0 0.0
2017-Jun-13 22:59N 38°44' W 009°06'0 0.0
2017-Jun-13 22:29N 38°44' W 009°06'0 0.0
2017-Jun-13 21:59N 38°44' W 009°06'0 0.0
2017-Jun-13 21:26N 38°44' W 009°06'0 0.0
2017-Jun-13 20:59N 38°44' W 009°06'0 0.0
2017-Jun-13 20:29N 38°44' W 009°06'0 0.0
2017-Jun-13 18:47N 38°44' W 009°06'  

Dump ship's entire track history